Map

Track Data

SID SEASON NUMBER BASIN SUBBASIN NAME ISO_TIME NATURE LAT LON WMO_WIND WMO_PRES WMO_AGENCY TRACK_TYPE DIST2LAND LANDFALL IFLAG USA_AGENCY USA_ATCF_ID USA_LAT USA_LON USA_RECORD USA_STATUS USA_WIND USA_PRES USA_SSHS USA_R34_NE USA_R34_SE USA_R34_SW USA_R34_NW USA_R50_NE USA_R50_SE USA_R50_SW USA_R50_NW USA_R64_NE USA_R64_SE USA_R64_SW USA_R64_NW USA_POCI USA_ROCI USA_RMW USA_EYE TOKYO_LAT TOKYO_LON TOKYO_GRADE TOKYO_WIND TOKYO_PRES TOKYO_R50_DIR TOKYO_R50_LONG TOKYO_R50_SHORT TOKYO_R30_DIR TOKYO_R30_LONG TOKYO_R30_SHORT TOKYO_LAND CMA_LAT CMA_LON CMA_CAT CMA_WIND CMA_PRES HKO_LAT HKO_LON HKO_CAT HKO_WIND HKO_PRES NEWDELHI_LAT NEWDELHI_LON NEWDELHI_GRADE NEWDELHI_WIND NEWDELHI_PRES NEWDELHI_CI NEWDELHI_DP NEWDELHI_POCI REUNION_LAT REUNION_LON REUNION_TYPE REUNION_WIND REUNION_PRES REUNION_TNUM REUNION_CI REUNION_RMW REUNION_R34_NE REUNION_R34_SE REUNION_R34_SW REUNION_R34_NW REUNION_R50_NE REUNION_R50_SE REUNION_R50_SW REUNION_R50_NW REUNION_R64_NE REUNION_R64_SE REUNION_R64_SW REUNION_R64_NW BOM_LAT BOM_LON BOM_TYPE BOM_WIND BOM_PRES BOM_TNUM BOM_CI BOM_RMW BOM_R34_NE BOM_R34_SE BOM_R34_SW BOM_R34_NW BOM_R50_NE BOM_R50_SE BOM_R50_SW BOM_R50_NW BOM_R64_NE BOM_R64_SE BOM_R64_SW BOM_R64_NW BOM_ROCI BOM_POCI BOM_EYE BOM_POS_METHOD BOM_PRES_METHOD NADI_LAT NADI_LON NADI_CAT NADI_WIND NADI_PRES WELLINGTON_LAT WELLINGTON_LON WELLINGTON_WIND WELLINGTON_PRES DS824_LAT DS824_LON DS824_STAGE DS824_WIND DS824_PRES TD9636_LAT TD9636_LON TD9636_STAGE TD9636_WIND TD9636_PRES TD9635_LAT TD9635_LON TD9635_WIND TD9635_PRES TD9635_ROCI NEUMANN_LAT NEUMANN_LON NEUMANN_CLASS NEUMANN_WIND NEUMANN_PRES MLC_LAT MLC_LON MLC_CLASS MLC_WIND MLC_PRES USA_GUST BOM_GUST BOM_GUST_PER REUNION_GUST REUNION_GUST_PER USA_SEAHGT USA_SEARAD_NE USA_SEARAD_SE USA_SEARAD_SW USA_SEARAD_NW STORM_SPEED STORM_DIR
1935314N08147 1935 67 WP MM NOT_NAMED 1935-11-09 21:00:00 NR 8.00000 146.800 main 1131 1120 __________O___ -1 8.00000 146.800 4 7 253
1935314N08147 1935 67 WP MM NOT_NAMED 1935-11-10 00:00:00 NR 7.89851 146.472 main 1120 1109 __________P___ -1 7.89851 146.472 4 7 254
1935314N08147 1935 67 WP MM NOT_NAMED 1935-11-10 03:00:00 NR 7.80753 146.135 main 1110 1101 __________P___ -1 7.80753 146.135 4 7 257
1935314N08147 1935 67 WP MM NOT_NAMED 1935-11-10 06:00:00 NR 7.73779 145.780 main 1101 1101 __________P___ -1 7.73779 145.780 4 7 262
1935314N08147 1935 67 WP MM NOT_NAMED 1935-11-10 09:00:00 NR 7.70000 145.400 main 1106 1106 __________O___ -1 7.70000 145.400 4 8 267
1935314N08147 1935 67 WP MM NOT_NAMED 1935-11-10 12:00:00 NR 7.70197 144.990 main 1112 1112 __________P___ -1 7.70197 144.990 4 8 273
1935314N08147 1935 67 WP MM NOT_NAMED 1935-11-10 15:00:00 NR 7.74015 144.570 main 1120 1120 __________P___ -1 7.74015 144.570 4 8 277
1935314N08147 1935 67 WP MM NOT_NAMED 1935-11-10 18:00:00 NR 7.80824 144.165 main 1140 1140 __________P___ -1 7.80824 144.165 4 8 282
1935314N08147 1935 67 WP MM NOT_NAMED 1935-11-10 21:00:00 NR 7.90000 143.800 main 1162 1162 __________O___ -1 7.90000 143.800 4 6 288
1935314N08147 1935 67 WP MM NOT_NAMED 1935-11-11 00:00:00 NR 8.00304 143.543 main 1182 1182 __________P___ -1 8.00304 143.543 4 5 296
1935314N08147 1935 67 WP MM NOT_NAMED 1935-11-11 03:00:00 NR 8.12692 143.322 main 1200 1200 __________P___ -1 8.12692 143.322 4 5 300
1935314N08147 1935 67 WP MM NOT_NAMED 1935-11-11 06:00:00 NR 8.26237 143.090 main 1228 1224 __________P___ -1 8.26237 143.090 4 6 298
1935314N08147 1935 67 WP MM NOT_NAMED 1935-11-11 09:00:00 NR 8.40000 142.800 main 1230 1222 __________O___ -1 8.40000 142.800 4 8 290
1935314N08147 1935 67 WP MM NOT_NAMED 1935-11-11 12:00:00 NR 8.52530 142.369 main 1223 1214 __________P___ -1 8.52530 142.369 4 9 285
1935314N08147 1935 67 WP MM NOT_NAMED 1935-11-11 15:00:00 NR 8.65044 141.880 main 1224 1210 __________P___ -1 8.65044 141.880 4 10 284
1935314N08147 1935 67 WP MM NOT_NAMED 1935-11-11 18:00:00 NR 8.77530 141.376 main 1218 1208 __________P___ -1 8.77530 141.376 4 10 284
1935314N08147 1935 67 WP MM NOT_NAMED 1935-11-11 21:00:00 NR 8.90000 140.900 main 1214 1208 __________O___ -1 8.90000 140.900 4 9 286
1935314N08147 1935 67 WP MM NOT_NAMED 1935-11-12 00:00:00 NR 9.00821 140.546 main 1210 1206 __________P___ -1 9.00821 140.546 4 7 288
1935314N08147 1935 67 WP MM NOT_NAMED 1935-11-12 03:00:00 NR 9.11922 140.222 main 1207 1205 __________P___ -1 9.11922 140.222 4 7 290
1935314N08147 1935 67 WP MM NOT_NAMED 1935-11-12 06:00:00 NR 9.24566 139.887 main 1205 1203 __________P___ -1 9.24566 139.887 4 8 292
1935314N08147 1935 67 WP MM NOT_NAMED 1935-11-12 09:00:00 NR 9.40000 139.500 main 1210 1206 __________O___ -1 9.40000 139.500 4 10 292
1935314N08147 1935 67 WP MM NOT_NAMED 1935-11-12 12:00:00 NR 9.61298 138.971 main 1214 1210 __________P___ -1 9.61298 138.971 4 12 292
1935314N08147 1935 67 WP MM NOT_NAMED 1935-11-12 15:00:00 NR 9.85072 138.393 main 1227 1222 __________P___ -1 9.85072 138.393 4 12 293
1935314N08147 1935 67 WP MM NOT_NAMED 1935-11-12 18:00:00 NR 10.0880 137.818 main 1234 1211 __________P___ -1 10.0880 137.818 4 12 293
1935314N08147 1935 67 WP MM NOT_NAMED 1935-11-12 21:00:00 NR 10.3000 137.300 main 1211 1182 __________O___ -1 10.3000 137.300 4 9 293
1935314N08147 1935 67 WP MM NOT_NAMED 1935-11-13 00:00:00 NR 10.4570 136.942 main 1174 1153 __________P___ -1 10.4570 136.942 4 7 294
1935314N08147 1935 67 WP MM NOT_NAMED 1935-11-13 03:00:00 NR 10.5864 136.642 main 1145 1127 __________P___ -1 10.5864 136.642 4 6 292
1935314N08147 1935 67 WP MM NOT_NAMED 1935-11-13 06:00:00 NR 10.6976 136.346 main 1117 1086 __________P___ -1 10.6976 136.346 4 7 289
1935314N08147 1935 67 WP MM NOT_NAMED 1935-11-13 09:00:00 NR 10.8000 136.000 main 1086 1046 __________O___ -1 10.8000 136.000 4 8 283
1935314N08147 1935 67 WP MM NOT_NAMED 1935-11-13 12:00:00 NR 10.8912 135.524 main 1035 984 __________P___ -1 10.8912 135.524 4 10 280
1935314N08147 1935 67 WP MM NOT_NAMED 1935-11-13 15:00:00 NR 10.9778 134.995 main 984 933 __________P___ -1 10.9778 134.995 4 11 280
1935314N08147 1935 67 WP MM NOT_NAMED 1935-11-13 18:00:00 NR 11.0755 134.443 main 923 872 __________P___ -1 11.0755 134.443 4 11 282
1935314N08147 1935 67 WP MM NOT_NAMED 1935-11-13 21:00:00 NR 11.2000 133.900 main 872 833 __________O___ -1 11.2000 133.900 4 10 287
1935314N08147 1935 67 WP MM NOT_NAMED 1935-11-14 00:00:00 NR 11.3575 133.495 main 836 798 __________P___ -1 11.3575 133.495 4 9 294
1935314N08147 1935 67 WP MM NOT_NAMED 1935-11-14 03:00:00 NR 11.5449 133.091 main 798 745 __________P___ -1 11.5449 133.091 4 10 295
1935314N08147 1935 67 WP MM NOT_NAMED 1935-11-14 06:00:00 NR 11.7600 132.616 main 747 685 __________P___ -1 11.7600 132.616 4 12 293
1935314N08147 1935 67 WP MM NOT_NAMED 1935-11-14 09:00:00 NR 12.0000 132.000 main 685 595 __________O___ -1 12.0000 132.000 4 16 288
1935314N08147 1935 67 WP MM NOT_NAMED 1935-11-14 12:00:00 NR 12.2691 131.035 main 585 487 __________P___ -1 12.2691 131.035 4 21 285
1935314N08147 1935 67 WP MM NOT_NAMED 1935-11-14 15:00:00 NR 12.5551 129.942 main 480 375 __________P___ -1 12.5551 129.942 4 22 285
1935314N08147 1935 67 WP MM NOT_NAMED 1935-11-14 18:00:00 NR 12.8379 128.878 main 375 289 __________P___ -1 12.8379 128.878 4 20 286
1935314N08147 1935 67 WP MM NOT_NAMED 1935-11-14 21:00:00 NR 13.1000 128.000 main 289 253 __________O___ -1 13.1000 128.000 4 14 290
1935314N08147 1935 67 WP MM NOT_NAMED 1935-11-15 00:00:00 NR 13.2985 127.544 main 249 237 __________P___ -1 13.2985 127.544 4 8 299
1935314N08147 1935 67 WP MM NOT_NAMED 1935-11-15 03:00:00 NR 13.4817 127.283 main 243 233 __________P___ -1 13.4817 127.283 4 6 311
1935314N08147 1935 67 WP MM NOT_NAMED 1935-11-15 06:00:00 NR 13.6742 127.106 main 241 241 __________P___ -1 13.6742 127.106 4 6 318
1935314N08147 1935 67 WP MM NOT_NAMED 1935-11-15 09:00:00 NR 13.9000 126.900 main 241 229 __________O___ -1 13.9000 126.900 4 8 311
1935314N08147 1935 67 WP MM NOT_NAMED 1935-11-15 12:00:00 NR 14.2139 126.469 main 229 185 __________P___ -1 14.2139 126.469 4 11 307
1935314N08147 1935 67 WP MM NOT_NAMED 1935-11-15 15:00:00 NR 14.5583 125.994 main 189 163 __________P___ -1 14.5583 125.994 4 11 307
1935314N08147 1935 67 WP MM NOT_NAMED 1935-11-15 18:00:00 NR 14.8984 125.522 main 163 155 __________P___ -1 14.8984 125.522 4 11 307
1935314N08147 1935 67 WP MM NOT_NAMED 1935-11-15 21:00:00 NR 15.2000 125.100 main 159 154 __________O___ -1 15.2000 125.100 4 8 308
1935314N08147 1935 67 WP MM NOT_NAMED 1935-11-16 00:00:00 NR 15.4132 124.828 main 165 165 __________P___ -1 15.4132 124.828 4 6 309
1935314N08147 1935 67 WP MM NOT_NAMED 1935-11-16 03:00:00 NR 15.5863 124.606 main 181 180 __________P___ -1 15.5863 124.606 4 5 307
1935314N08147 1935 67 WP MM NOT_NAMED 1935-11-16 06:00:00 NR 15.7413 124.381 main 190 190 __________P___ -1 15.7413 124.381 4 6 303
1935314N08147 1935 67 WP MM NOT_NAMED 1935-11-16 09:00:00 NR 15.9000 124.100 main 204 156 __________O___ -1 15.9000 124.100 4 8 297
1935314N08147 1935 67 WP MM NOT_NAMED 1935-11-16 12:00:00 NR 16.1017 123.650 main 147 100 __________P___ -1 16.1017 123.650 4 10 294
1935314N08147 1935 67 WP MM NOT_NAMED 1935-11-16 15:00:00 NR 16.3087 123.143 main 91 44 __________P___ -1 16.3087 123.143 4 11 293
1935314N08147 1935 67 WP MM NOT_NAMED 1935-11-16 18:00:00 NR 16.5111 122.640 main 33 0 __________P___ -1 16.5111 122.640 4 10 293
1935314N08147 1935 67 WP MM NOT_NAMED 1935-11-16 21:00:00 NR 16.7000 122.200 main 0 0 __________O___ -1 16.7000 122.200 4 8 297
1935314N08147 1935 67 WP MM NOT_NAMED 1935-11-17 00:00:00 NR 16.8595 121.919 main 0 0 __________P___ -1 16.8595 121.919 4 6 303
1935314N08147 1935 67 WP MM NOT_NAMED 1935-11-17 03:00:00 NR 17.0065 121.704 main 0 0 __________P___ -1 17.0065 121.704 4 5 307
1935314N08147 1935 67 WP MM NOT_NAMED 1935-11-17 06:00:00 NR 17.1503 121.513 main 0 0 __________P___ -1 17.1503 121.513 4 5 307
1935314N08147 1935 67 WP MM NOT_NAMED 1935-11-17 09:00:00 NR 17.3000 121.300 main 0 0 __________O___ -1 17.3000 121.300 4 6 301
1935314N08147 1935 67 WP MM NOT_NAMED 1935-11-17 12:00:00 NR 17.4641 120.967 main 0 0 __________P___ -1 17.4641 120.967 4 7 297
1935314N08147 1935 67 WP MM NOT_NAMED 1935-11-17 15:00:00 NR 17.6356 120.613 main 0 0 __________P___ -1 17.6356 120.613 4 7 298
1935314N08147 1935 67 WP MM NOT_NAMED 1935-11-17 18:00:00 NR 17.8141 120.277 main 15 15 __________P___ -1 17.8141 120.277 4 7 302
1935314N08147 1935 67 WP MM NOT_NAMED 1935-11-17 21:00:00 NR 18.0000 120.000 main 52 52 __________O___ -1 18.0000 120.000 4 6 310
1935314N08147 1935 67 WP MM NOT_NAMED 1935-11-18 00:00:00 NR 18.1925 119.799 main 74 74 __________P___ -1 18.1925 119.799 4 5 321
1935314N08147 1935 67 WP MM NOT_NAMED 1935-11-18 03:00:00 NR 18.3921 119.665 main 90 90 __________P___ -1 18.3921 119.665 4 4 335
1935314N08147 1935 67 WP MM NOT_NAMED 1935-11-18 06:00:00 NR 18.5957 119.599 main 107 107 __________P___ -1 18.5957 119.599 4 4 353
1935314N08147 1935 67 WP MM NOT_NAMED 1935-11-18 09:00:00 NR 18.8000 119.600 main 114 114 __________O___ -1 18.8000 119.600 4 4 5
1935314N08147 1935 67 WP MM NOT_NAMED 1935-11-18 12:00:00 NR 19.0364 119.636 main 124 122 __________P___ -1 19.0364 119.636 4 5 15
1935314N08147 1935 67 WP MM NOT_NAMED 1935-11-18 15:00:00 NR 19.2673 119.737 main 138 130 __________P___ -1 19.2673 119.737 4 5 30
1935314N08147 1935 67 WP MM NOT_NAMED 1935-11-18 18:00:00 NR 19.4645 119.895 main 138 131 __________P___ -1 19.4645 119.895 4 5 46
1935314N08147 1935 67 WP MM NOT_NAMED 1935-11-18 21:00:00 NR 19.6000 120.100 main 133 128 __________O___ -1 19.6000 120.100 4 4 60
1935314N08147 1935 67 WP MM NOT_NAMED 1935-11-19 00:00:00 NR 19.6461 120.230 main 128 119 __________P___ -1 19.6461 120.230 4 3 84
1935314N08147 1935 67 WP MM NOT_NAMED 1935-11-19 03:00:00 NR 19.6295 120.418 main 119 112 __________P___ -1 19.6295 120.418 4 5 99
1935314N08147 1935 67 WP MM NOT_NAMED 1935-11-19 06:00:00 NR 19.5733 120.721 main 112 100 __________P___ -1 19.5733 120.721 4 7 100
1935314N08147 1935 67 WP MM NOT_NAMED 1935-11-19 09:00:00 NR 19.5000 121.200 main 105 105 __________O___ -1 19.5000 121.200 4 12 98
1935314N08147 1935 67 WP MM NOT_NAMED 1935-11-19 12:00:00 NR 19.4148 121.991 main 112 105 __________P___ -1 19.4148 121.991 4 17 96
1935314N08147 1935 67 WP MM NOT_NAMED 1935-11-19 15:00:00 NR 19.3181 122.942 main 118 118 __________P___ -1 19.3181 122.942 4 18 96
1935314N08147 1935 67 WP MM NOT_NAMED 1935-11-19 18:00:00 NR 19.2367 123.922 main 190 190 __________P___ -1 19.2367 123.922 4 18 94
1935314N08147 1935 67 WP MM NOT_NAMED 1935-11-19 21:00:00 NR 19.2000 124.800 main 277 277 __________O___ -1 19.2000 124.800 4 14 88
1935314N08147 1935 67 WP MM NOT_NAMED 1935-11-20 00:00:00 NR 19.2793 125.379 main 341 341 __________P___ -1 19.2793 125.379 4 10 78
1935314N08147 1935 67 WP MM NOT_NAMED 1935-11-20 03:00:00 NR 19.4039 125.845 main 384 384 __________P___ -1 19.4039 125.845 4 9 73
1935314N08147 1935 67 WP MM NOT_NAMED 1935-11-20 06:00:00 NR 19.5267 126.264 main 438 438 __________P___ -1 19.5267 126.264 4 8 76
1935314N08147 1935 67 WP MM NOT_NAMED 1935-11-20 09:00:00 NR 19.6000 126.700 main 481 481 __________O___ -1 19.6000 126.700 4 11 87
1935314N08147 1935 67 WP MM NOT_NAMED 1935-11-20 12:00:00 NR 19.5876 127.418 main 552 552 __________P___ -1 19.5876 127.418 4 14 94
1935314N08147 1935 67 WP MM NOT_NAMED 1935-11-20 15:00:00 NR 19.5144 128.137 main 622 622 __________P___ -1 19.5144 128.137 4 12 99
1935314N08147 1935 67 WP MM NOT_NAMED 1935-11-20 18:00:00 NR 19.3836 128.713 main 682 682 __________P___ -1 19.3836 128.713 4 9 111
1935314N08147 1935 67 WP MM NOT_NAMED 1935-11-20 21:00:00 NR 19.2000 129.000 main 710 686 __________O___ -1 19.2000 129.000 4 6 171
1935314N08147 1935 67 WP MM NOT_NAMED 1935-11-21 00:00:00 NR 18.8171 128.802 main 686 643 __________P___ -1 18.8171 128.802 4 10 219
1935314N08147 1935 67 WP MM NOT_NAMED 1935-11-21 03:00:00 NR 18.4111 128.321 main 633 564 __________P___ -1 18.4111 128.321 4 13 236
1935314N08147 1935 67 WP MM NOT_NAMED 1935-11-21 06:00:00 NR 18.1243 127.705 main 564 503 __________P___ -1 18.1243 127.705 4 12 255
1935314N08147 1935 67 WP MM NOT_NAMED 1935-11-21 09:00:00 NR 18.1000 127.100 main 503 464 __________O___ -1 18.1000 127.100 4 11 294
1935314N08147 1935 67 WP MM NOT_NAMED 1935-11-21 12:00:00 NR 18.5560 126.685 main 464 430 __________P___ -1 18.5560 126.685 4 14 327
1935314N08147 1935 67 WP MM NOT_NAMED 1935-11-21 15:00:00 NR 19.2749 126.307 main 432 423 __________P___ -1 19.2749 126.307 4 17 337
1935314N08147 1935 67 WP MM NOT_NAMED 1935-11-21 18:00:00 NR 20.1064 125.975 main 432 428 __________P___ -1 20.1064 125.975 4 17 341
1935314N08147 1935 67 WP MM NOT_NAMED 1935-11-21 21:00:00 NR 20.9000 125.700 main 452 451 __________O___ -1 20.9000 125.700 4 14 339
1935314N08147 1935 67 WP MM NOT_NAMED 1935-11-22 00:00:00 NR 21.4108 125.435 main 453 416 __________P___ -1 21.4108 125.435 4 11 336
1935314N08147 1935 67 WP MM NOT_NAMED 1935-11-22 03:00:00 NR 21.8644 125.235 main 412 389 __________P___ -1 21.8644 125.235 4 10 342
1935314N08147 1935 67 WP MM NOT_NAMED 1935-11-22 06:00:00 NR 22.3108 125.118 main 389 377 __________P___ -1 22.3108 125.118 4 9 352
1935314N08147 1935 67 WP MM NOT_NAMED 1935-11-22 09:00:00 NR 22.8000 125.100 main 377 351 __________O___ -1 22.8000 125.100 4 11 3
1935314N08147 1935 67 WP MM NOT_NAMED 1935-11-22 12:00:00 NR 23.4443 125.185 main 356 346 __________P___ -1 23.4443 125.185 4 14 11
1935314N08147 1935 67 WP MM NOT_NAMED 1935-11-22 15:00:00 NR 24.1300 125.370 main 357 349 __________P___ -1 24.1300 125.370 4 14 16
1935314N08147 1935 67 WP MM NOT_NAMED 1935-11-22 18:00:00 NR 24.8007 125.620 main 363 363 __________P___ -1 24.8007 125.620 4 14 21
1935314N08147 1935 67 WP MM NOT_NAMED 1935-11-22 21:00:00 NR 25.4000 125.900 main 394 394 __________O___ -1 25.4000 125.900 4 12 25
1935314N08147 1935 67 WP MM NOT_NAMED 1935-11-23 00:00:00 NR 25.8867 126.170 main 433 433 __________P___ -1 25.8867 126.170 4 10 29
1935314N08147 1935 67 WP MM NOT_NAMED 1935-11-23 03:00:00 NR 26.2927 126.457 main 473 473 __________P___ -1 26.2927 126.457 4 9 35
1935314N08147 1935 67 WP MM NOT_NAMED 1935-11-23 06:00:00 NR 26.6273 126.741 main 502 502 __________P___ -1 26.6273 126.741 4 8 39
1935314N08147 1935 67 WP MM NOT_NAMED 1935-11-23 09:00:00 NR 26.9000 127.000 main 542 542 __________O___ -1 26.9000 127.000 4 6 38
1935314N08147 1935 67 WP MM NOT_NAMED 1935-11-23 12:00:00 NR 27.1195 127.165 main 542 518 __________P___ -1 27.1195 127.165 4 5 35
1935314N08147 1935 67 WP MM NOT_NAMED 1935-11-23 15:00:00 NR 27.2863 127.307 main 518 498 __________P___ -1 27.2863 127.307 4 4 41
1935314N08147 1935 67 WP MM NOT_NAMED 1935-11-23 18:00:00 NR 27.4350 127.471 main 498 468 __________P___ -1 27.4350 127.471 4 5 48
1935314N08147 1935 67 WP MM NOT_NAMED 1935-11-23 21:00:00 NR 27.6000 127.700 main 468 439 __________O___ -1 27.6000 127.700 4 5 51
1935314N08147 1935 67 WP MM NOT_NAMED 1935-11-24 00:00:00 NR 27.7641 127.937 main 439 415 __________P___ -1 27.7641 127.937 4 6 54
1935314N08147 1935 67 WP MM NOT_NAMED 1935-11-24 03:00:00 NR 27.9590 128.260 main 401 364 __________P___ -1 27.9590 128.260 4 8 57
1935314N08147 1935 67 WP MM NOT_NAMED 1935-11-24 06:00:00 NR 28.2247 128.727 main 364 295 __________P___ -1 28.2247 128.727 4 12 57
1935314N08147 1935 67 WP MM NOT_NAMED 1935-11-24 09:00:00 NR 28.6000 129.400 main 295 215 __________O___ -1 28.6000 129.400 4 17 56
1935314N08147 1935 67 WP MM NOT_NAMED 1935-11-24 12:00:00 NR 29.1675 130.316 main 204 145 __________P___ -1 29.1675 130.316 4 22 55
1935314N08147 1935 67 WP MM NOT_NAMED 1935-11-24 15:00:00 NR 29.8290 131.448 main 149 144 __________P___ -1 29.8290 131.448 4 25 58
1935314N08147 1935 67 WP MM NOT_NAMED 1935-11-24 18:00:00 NR 30.5006 132.732 main 159 159 __________P___ -1 30.5006 132.732 4 26 61
1935314N08147 1935 67 WP MM NOT_NAMED 1935-11-24 21:00:00 NR 31.1000 134.100 main 206 206 __________O___ -1 31.1000 134.100 4 25 70
1935314N08147 1935 67 WP MM NOT_NAMED 1935-11-25 00:00:00 NR 31.3675 135.501 main 224 213 __________P___ -1 31.3675 135.501 4 25 79
1935314N08147 1935 67 WP MM NOT_NAMED 1935-11-25 03:00:00 NR 31.5741 136.946 main 225 225 __________P___ -1 31.5741 136.946 4 25 78
1935314N08147 1935 67 WP MM NOT_NAMED 1935-11-25 06:00:00 NR 31.8678 138.366 main 293 256 __________P___ -1 31.8678 138.366 4 25 71
1935314N08147 1935 67 WP MM NOT_NAMED 1935-11-25 09:00:00 NR 32.4000 139.700 main 259 186 __________O___ -1 32.4000 139.700 4 27 54
1935314N08147 1935 67 WP MM NOT_NAMED 1935-11-25 12:00:00 NR 33.4493 140.901 main 190 148 __________P___ -1 33.4493 140.901 4 30 40
1935314N08147 1935 67 WP MM NOT_NAMED 1935-11-25 15:00:00 NR 34.7376 142.035 main 149 141 __________P___ -1 34.7376 142.035 4 32 35
1935314N08147 1935 67 WP MM NOT_NAMED 1935-11-25 18:00:00 NR 36.0824 143.128 main 202 202 __________P___ -1 36.0824 143.128 4 31 34
1935314N08147 1935 67 WP MM NOT_NAMED 1935-11-25 21:00:00 NR 37.3000 144.200 main 261 261 __________O___ -1 37.3000 144.200 4 27 41
1935314N08147 1935 67 WP MM NOT_NAMED 1935-11-26 00:00:00 NR 38.1334 145.387 main 324 324 __________P___ -1 38.1334 145.387 4 24 50
1935314N08147 1935 67 WP MM NOT_NAMED 1935-11-26 03:00:00 NR 38.8164 146.528 main 386 386 __________P___ -1 38.8164 146.528 4 21 53
1935314N08147 1935 67 WP MM NOT_NAMED 1935-11-26 06:00:00 NR 39.4158 147.555 main 454 429 __________P___ -1 39.4158 147.555 4 19 51
1935314N08147 1935 67 WP MM NOT_NAMED 1935-11-26 09:00:00 NR 40.0000 148.400 main 429 394 __________O___ -1 40.0000 148.400 4 17 38
1935314N08147 1935 67 WP MM NOT_NAMED 1935-11-26 12:00:00 NR 40.7353 148.918 main 394 362 __________P___ -1 40.7353 148.918 4 16 24
1935314N08147 1935 67 WP MM NOT_NAMED 1935-11-26 15:00:00 NR 41.4658 149.260 main 362 334 __________P___ -1 41.4658 149.260 4 15 19
1935314N08147 1935 67 WP MM NOT_NAMED 1935-11-26 18:00:00 NR 42.1390 149.572 main 338 302 __________P___ -1 42.1390 149.572 4 14 24
1935314N08147 1935 67 WP MM NOT_NAMED 1935-11-26 21:00:00 NR 42.7000 150.000 main 302 279 __________O___ -1 42.7000 150.000 4 13 40
1935314N08147 1935 67 WP MM NOT_NAMED 1935-11-27 00:00:00 NR 43.1079 150.661 main 287 278 __________P___ -1 43.1079 150.661 4 13 58
1935314N08147 1935 67 WP MM NOT_NAMED 1935-11-27 03:00:00 NR 43.3845 151.527 main 282 282 __________P___ -1 43.3845 151.527 4 14 71
1935314N08147 1935 67 WP MM NOT_NAMED 1935-11-27 06:00:00 NR 43.5685 152.529 main 313 313 __________P___ -1 43.5685 152.529 4 15 78
1935314N08147 1935 67 WP MM NOT_NAMED 1935-11-27 09:00:00 NR 43.7000 153.600 main 363 __________O___ -1 43.7000 153.600 4 16 80

Digital Typhoon Data and Search

About IBTrACS Database

This database is a web-friendly format of International Best Track Archive for Climate Stewardship (IBTrACS), a global best track data archive curated by NOAA dating back to 1842.

Updated: 2021-10-08